Time;durP1;ratioP1;P1;durP2;ratioP2;P2;SDS_P1;SDS_P2;PMS_P1;PMS_P2;Temp;Humidity;BMP_temperature;BMP_pressure;BME280_temperature;BME280_humidity;BME280_pressure;Samples;Min_cycle;Max_cycle;Signal;HPM_P1;HPM_P2
2021/08/20 00:01:56;;;;;;;3.95;1.40;;;;;;;;;;5035469;28;20033;-52
2021/08/20 00:04:22;;;;;;;2.38;1.85;;;;;;;;;;5035771;28;20053;-52
2021/08/20 00:06:48;;;;;;;2.75;1.88;;;;;;;;;;5035127;28;20030;-52
2021/08/20 00:09:14;;;;;;;2.45;1.77;;;;;;;;;;5035173;28;20022;-52
2021/08/20 00:11:40;;;;;;;5.78;1.95;;;;;;;;;;5035020;28;20036;-52
2021/08/20 00:14:08;;;;;;;3.30;1.67;;;;;;;;;;5035016;28;20118;-52
2021/08/20 00:16:34;;;;;;;2.42;1.80;;;;;;;;;;5035616;28;20053;-52
2021/08/20 00:19:00;;;;;;;3.10;1.95;;;;;;;;;;5035441;28;20147;-52
2021/08/20 00:21:26;;;;;;;5.45;2.00;;;;;;;;;;5034965;28;20021;-52
2021/08/20 00:23:52;;;;;;;1.92;1.55;;;;;;;;;;5034888;28;20028;-53
2021/08/20 00:26:18;;;;;;;2.55;1.48;;;;;;;;;;5035368;28;20105;-52
2021/08/20 00:28:44;;;;;;;2.72;1.40;;;;;;;;;;5033640;28;20033;-52
2021/08/20 00:31:10;;;;;;;2.45;1.27;;;;;;;;;;5034593;28;20029;-52
2021/08/20 00:33:37;;;;;;;5.20;1.90;;;;;;;;;;5034997;28;20087;-52
2021/08/20 00:36:04;;;;;;;2.47;1.65;;;;;;;;;;5035176;28;20029;-52
2021/08/20 00:38:30;;;;;;;3.40;1.45;;;;;;;;;;5034775;28;20029;-52
2021/08/20 00:40:56;;;;;;;4.78;1.70;;;;;;;;;;5033958;28;20033;-52
2021/08/20 00:43:23;;;;;;;3.35;1.67;;;;;;;;;;5034505;28;20402;-52
2021/08/20 00:45:52;;;;;;;2.13;1.80;;;;;;;;;;5034702;28;20307;-52
2021/08/20 00:48:18;;;;;;;2.30;1.63;;;;;;;;;;5034931;28;20384;-52
2021/08/20 00:50:44;;;;;;;4.35;1.70;;;;;;;;;;5033998;28;20030;-52
2021/08/20 00:53:10;;;;;;;2.97;1.90;;;;;;;;;;5034326;28;20033;-52
2021/08/20 00:55:36;;;;;;;3.33;2.03;;;;;;;;;;5034528;28;20029;-52
2021/08/20 00:58:02;;;;;;;2.78;2.10;;;;;;;;;;5024499;28;20034;-52
2021/08/20 01:00:28;;;;;;;3.10;1.95;;;;;;;;;;5029016;28;20026;-52
2021/08/20 01:02:54;;;;;;;2.50;1.70;;;;;;;;;;5033922;28;20088;-52
2021/08/20 01:05:21;;;;;;;5.68;1.42;;;;;;;;;;5032463;28;20025;-52
2021/08/20 01:07:48;;;;;;;3.08;1.88;;;;;;;;;;5014287;28;20545;-52
2021/08/20 01:10:15;;;;;;;4.43;1.67;;;;;;;;;;5014529;28;20026;-52
2021/08/20 01:12:41;;;;;;;5.75;1.67;;;;;;;;;;5013953;28;20475;-52
2021/08/20 01:15:08;;;;;;;3.92;1.75;;;;;;;;;;5014684;28;20104;-52
2021/08/20 01:17:34;;;;;;;2.85;1.90;;;;;;;;;;5014270;28;20389;-52
2021/08/20 01:20:00;;;;;;;2.30;1.75;;;;;;;;;;5014356;28;20325;-52
2021/08/20 01:22:26;;;;;;;3.17;1.90;;;;;;;;;;5014216;28;20026;-52
2021/08/20 01:25:02;;;;;;;3.83;1.90;;;;;;;;;;5014281;28;20038;-52
2021/08/20 01:27:30;;;;;;;3.10;1.88;;;;;;;;;;5014285;28;20061;-53
2021/08/20 01:29:56;;;;;;;5.53;2.50;;;;;;;;;;5012551;28;20499;-52
2021/08/20 01:32:22;;;;;;;3.15;1.67;;;;;;;;;;5013815;28;20117;-53
2021/08/20 01:34:48;;;;;;;5.13;2.22;;;;;;;;;;5014704;28;20097;-53
2021/08/20 01:37:14;;;;;;;5.93;2.38;;;;;;;;;;5034181;28;20060;-53
2021/08/20 01:39:40;;;;;;;4.70;2.33;;;;;;;;;;5033555;28;20087;-52
2021/08/20 01:42:06;;;;;;;3.80;2.00;;;;;;;;;;5033150;28;20336;-53
2021/08/20 01:44:32;;;;;;;3.72;2.25;;;;;;;;;;5034037;28;20029;-53
2021/08/20 01:46:58;;;;;;;2.88;1.63;;;;;;;;;;5033318;28;20088;-52
2021/08/20 01:49:24;;;;;;;2.15;1.70;;;;;;;;;;5033230;28;20022;-53
2021/08/20 01:51:50;;;;;;;4.15;1.60;;;;;;;;;;5033335;28;20025;-52
2021/08/20 01:54:16;;;;;;;1.70;1.60;;;;;;;;;;5033102;28;20424;-52
2021/08/20 01:56:42;;;;;;;6.40;1.75;;;;;;;;;;5033340;28;20103;-52
2021/08/20 01:59:09;;;;;;;4.38;1.88;;;;;;;;;;5033037;28;20431;-52
2021/08/20 02:01:35;;;;;;;3.08;1.88;;;;;;;;;;5032666;28;20451;-51
2021/08/20 02:04:01;;;;;;;3.88;1.92;;;;;;;;;;5033251;28;20439;-51
2021/08/20 02:06:27;;;;;;;5.00;1.80;;;;;;;;;;5033466;28;20415;-51
2021/08/20 02:08:53;;;;;;;3.47;2.00;;;;;;;;;;5033403;28;20057;-52
2021/08/20 02:11:19;;;;;;;5.57;2.05;;;;;;;;;;5032550;28;20032;-52
2021/08/20 02:13:46;;;;;;;4.82;1.90;;;;;;;;;;5033224;28;20097;-52
2021/08/20 02:16:13;;;;;;;2.20;1.70;;;;;;;;;;5032989;28;20025;-52
2021/08/20 02:18:39;;;;;;;5.45;2.00;;;;;;;;;;5032867;28;20418;-52
2021/08/20 02:21:05;;;;;;;7.90;1.85;;;;;;;;;;5032448;28;20021;-52
2021/08/20 02:23:32;;;;;;;2.92;1.67;;;;;;;;;;5033011;28;20085;-52
2021/08/20 02:25:59;;;;;;;4.30;2.58;;;;;;;;;;5026695;28;20446;-52
2021/08/20 02:28:25;;;;;;;6.97;2.67;;;;;;;;;;5031784;28;20040;-52
2021/08/20 02:30:52;;;;;;;3.97;2.10;;;;;;;;;;5032073;28;20355;-53
2021/08/20 02:33:18;;;;;;;2.70;1.98;;;;;;;;;;5032884;28;20043;-52
2021/08/20 02:35:44;;;;;;;3.28;2.13;;;;;;;;;;5033165;28;20025;-52
2021/08/20 02:38:10;;;;;;;4.95;1.95;;;;;;;;;;5032619;28;20033;-52
2021/08/20 02:40:36;;;;;;;4.00;1.85;;;;;;;;;;5031896;28;20036;-52
2021/08/20 02:43:02;;;;;;;4.43;1.88;;;;;;;;;;5032535;28;20033;-53
2021/08/20 02:45:29;;;;;;;4.25;2.15;;;;;;;;;;5033176;28;20104;-52
2021/08/20 02:47:55;;;;;;;2.25;1.58;;;;;;;;;;5032722;28;20034;-52
2021/08/20 02:50:21;;;;;;;3.40;1.67;;;;;;;;;;5032615;28;20083;-52
2021/08/20 02:52:47;;;;;;;3.33;2.03;;;;;;;;;;5032318;28;20363;-52
2021/08/20 02:55:13;;;;;;;4.22;1.70;;;;;;;;;;5032460;28;20428;-52
2021/08/20 02:57:40;;;;;;;4.32;2.45;;;;;;;;;;5032282;28;20525;-52
2021/08/20 03:00:06;;;;;;;5.55;2.78;;;;;;;;;;5032545;28;20026;-52
2021/08/20 03:02:32;;;;;;;4.00;1.90;;;;;;;;;;5032699;28;20053;-52
2021/08/20 03:04:58;;;;;;;3.42;1.50;;;;;;;;;;5032974;28;20041;-52
2021/08/20 03:07:24;;;;;;;7.82;2.92;;;;;;;;;;5035284;28;20059;-53
2021/08/20 03:09:50;;;;;;;7.07;2.83;;;;;;;;;;5036236;28;20151;-52
2021/08/20 03:12:16;;;;;;;7.63;2.45;;;;;;;;;;5036114;28;20486;-52
2021/08/20 03:14:42;;;;;;;4.82;2.78;;;;;;;;;;5036667;28;20110;-52
2021/08/20 03:17:08;;;;;;;3.03;2.15;;;;;;;;;;5036234;28;20036;-52
2021/08/20 03:19:34;;;;;;;8.48;2.95;;;;;;;;;;5036019;28;20018;-52
2021/08/20 03:22:00;;;;;;;6.28;2.33;;;;;;;;;;5036113;28;20423;-52
2021/08/20 03:24:26;;;;;;;3.45;2.20;;;;;;;;;;5036133;28;20112;-52
2021/08/20 03:26:52;;;;;;;2.67;1.70;;;;;;;;;;5036386;28;20025;-52
2021/08/20 03:29:18;;;;;;;2.75;1.60;;;;;;;;;;5034692;28;20102;-52
2021/08/20 03:31:44;;;;;;;5.75;2.10;;;;;;;;;;5035334;28;20076;-52
2021/08/20 03:34:10;;;;;;;3.13;2.33;;;;;;;;;;5036914;28;20113;-52
2021/08/20 03:36:36;;;;;;;3.38;1.67;;;;;;;;;;5036269;28;20104;-52
2021/08/20 03:39:02;;;;;;;5.18;3.00;;;;;;;;;;5035677;28;20022;-52
2021/08/20 03:41:28;;;;;;;6.45;2.45;;;;;;;;;;5036129;28;20052;-52
2021/08/20 03:43:54;;;;;;;3.05;2.10;;;;;;;;;;5035445;28;20379;-52
2021/08/20 03:46:20;;;;;;;3.95;2.15;;;;;;;;;;5035907;28;20061;-52
2021/08/20 03:48:46;;;;;;;3.22;1.98;;;;;;;;;;5035858;28;20026;-52
2021/08/20 03:51:13;;;;;;;3.85;2.10;;;;;;;;;;5034809;28;20025;-52
2021/08/20 03:53:39;;;;;;;3.28;2.17;;;;;;;;;;5035659;28;20041;-52
2021/08/20 03:56:05;;;;;;;6.47;2.72;;;;;;;;;;5035913;28;20432;-52
2021/08/20 03:58:31;;;;;;;4.20;2.10;;;;;;;;;;5035775;28;20108;-52
2021/08/20 04:00:57;;;;;;;5.88;2.35;;;;;;;;;;5035330;28;20428;-52
2021/08/20 04:03:23;;;;;;;2.20;1.67;;;;;;;;;;5035567;28;20097;-52
2021/08/20 04:05:50;;;;;;;2.72;1.45;;;;;;;;;;5035353;28;20419;-52
2021/08/20 04:08:16;;;;;;;2.28;1.70;;;;;;;;;;5035768;28;20347;-52
2021/08/20 04:10:43;;;;;;;5.07;1.30;;;;;;;;;;5034946;28;20037;-52
2021/08/20 04:13:09;;;;;;;4.07;1.98;;;;;;;;;;5035727;28;20037;-52
2021/08/20 04:15:36;;;;;;;4.90;2.10;;;;;;;;;;5035592;28;20033;-52
2021/08/20 04:18:02;;;;;;;6.82;2.30;;;;;;;;;;5033990;28;20467;-52
2021/08/20 04:20:28;;;;;;;3.25;1.77;;;;;;;;;;5034772;28;20030;-52
2021/08/20 04:22:55;;;;;;;3.97;1.63;;;;;;;;;;5035025;28;20120;-52
2021/08/20 04:25:21;;;;;;;3.38;2.00;;;;;;;;;;5034906;28;20041;-52
2021/08/20 04:27:47;;;;;;;3.60;1.50;;;;;;;;;;5035394;28;20029;-52
2021/08/20 04:30:13;;;;;;;2.40;1.55;;;;;;;;;;5033360;28;20025;-52
2021/08/20 04:32:39;;;;;;;6.32;2.25;;;;;;;;;;5034546;28;20048;-52
2021/08/20 04:35:06;;;;;;;2.75;1.63;;;;;;;;;;5034914;28;20018;-52
2021/08/20 04:37:32;;;;;;;4.63;1.70;;;;;;;;;;5034888;28;20436;-52
2021/08/20 04:39:58;;;;;;;3.42;1.85;;;;;;;;;;5034734;28;20063;-52
2021/08/20 04:42:24;;;;;;;3.40;1.92;;;;;;;;;;5034416;28;20065;-52
2021/08/20 04:44:50;;;;;;;2.72;1.88;;;;;;;;;;5034823;28;20025;-52
2021/08/20 04:47:16;;;;;;;5.18;2.00;;;;;;;;;;5033741;28;20026;-52
2021/08/20 04:49:42;;;;;;;3.03;1.73;;;;;;;;;;5033214;28;20406;-52
2021/08/20 04:52:08;;;;;;;2.33;1.52;;;;;;;;;;5034389;28;20053;-52
2021/08/20 04:54:35;;;;;;;2.80;1.67;;;;;;;;;;5034666;28;20558;-52
2021/08/20 04:57:01;;;;;;;2.40;1.90;;;;;;;;;;5035094;28;20026;-52
2021/08/20 04:59:27;;;;;;;3.97;1.80;;;;;;;;;;5033439;28;20022;-52
2021/08/20 05:01:53;;;;;;;4.55;2.25;;;;;;;;;;5034044;28;20021;-52
2021/08/20 05:04:19;;;;;;;3.92;2.20;;;;;;;;;;5034717;28;20025;-52
2021/08/20 05:06:45;;;;;;;3.47;1.83;;;;;;;;;;5034353;28;20060;-52
2021/08/20 05:09:11;;;;;;;2.72;1.83;;;;;;;;;;5034041;28;20057;-52
2021/08/20 05:11:38;;;;;;;3.63;2.25;;;;;;;;;;5034012;28;20032;-52
2021/08/20 05:14:04;;;;;;;3.75;2.33;;;;;;;;;;5034003;28;20075;-52
2021/08/20 05:16:30;;;;;;;3.97;2.05;;;;;;;;;;5034457;28;20021;-51
2021/08/20 05:18:56;;;;;;;3.40;2.50;;;;;;;;;;5034163;28;20056;-52
2021/08/20 05:21:22;;;;;;;7.03;3.03;;;;;;;;;;5033432;28;20068;-52
2021/08/20 05:23:48;;;;;;;6.60;2.60;;;;;;;;;;5034353;28;20029;-53
2021/08/20 05:26:15;;;;;;;4.88;2.67;;;;;;;;;;5034524;28;20112;-52
2021/08/20 05:28:40;;;;;;;4.72;2.40;;;;;;;;;;5032801;28;20029;-52
2021/08/20 05:31:06;;;;;;;5.05;2.45;;;;;;;;;;5033173;28;20024;-52
2021/08/20 05:33:34;;;;;;;3.55;2.20;;;;;;;;;;5033546;28;20463;-52
2021/08/20 05:36:00;;;;;;;5.78;2.45;;;;;;;;;;5033831;28;20025;-52
2021/08/20 05:38:26;;;;;;;7.53;2.45;;;;;;;;;;5034290;28;20033;-52
2021/08/20 05:40:52;;;;;;;8.63;2.53;;;;;;;;;;5032832;28;20029;-52
2021/08/20 05:43:18;;;;;;;10.23;1.90;;;;;;;;;;5033978;28;20117;-52
2021/08/20 05:45:44;;;;;;;4.68;2.50;;;;;;;;;;5033554;28;20037;-52
2021/08/20 05:48:11;;;;;;;2.28;1.88;;;;;;;;;;5033507;28;20026;-52
2021/08/20 05:50:37;;;;;;;2.63;1.77;;;;;;;;;;5033257;28;20108;-52
2021/08/20 05:53:03;;;;;;;6.45;2.15;;;;;;;;;;5033635;28;20067;-52
2021/08/20 05:55:31;;;;;;;5.05;2.03;;;;;;;;;;5033707;28;20030;-52
2021/08/20 05:57:58;;;;;;;2.58;1.80;;;;;;;;;;5033399;28;20045;-52
2021/08/20 06:00:25;;;;;;;3.33;2.08;;;;;;;;;;5033050;28;20360;-52
2021/08/20 06:02:51;;;;;;;6.38;2.25;;;;;;;;;;5033125;28;20018;-52
2021/08/20 06:05:17;;;;;;;6.55;2.50;;;;;;;;;;5033360;28;20033;-52
2021/08/20 06:07:43;;;;;;;2.90;2.17;;;;;;;;;;5033003;28;20024;-52
2021/08/20 06:10:09;;;;;;;2.75;1.95;;;;;;;;;;5032680;28;20032;-52
2021/08/20 06:12:35;;;;;;;5.85;2.30;;;;;;;;;;5032846;28;20448;-52
2021/08/20 06:15:01;;;;;;;7.10;2.35;;;;;;;;;;5033370;28;20029;-52
2021/08/20 06:17:27;;;;;;;4.70;2.25;;;;;;;;;;5033060;28;20056;-52
2021/08/20 06:19:54;;;;;;;3.80;2.35;;;;;;;;;;5032860;28;20017;-52
2021/08/20 06:22:20;;;;;;;3.00;2.20;;;;;;;;;;5032302;28;20041;-52
2021/08/20 06:24:46;;;;;;;7.90;2.30;;;;;;;;;;5032874;28;20083;-52
2021/08/20 06:27:12;;;;;;;3.20;1.95;;;;;;;;;;5033300;28;20021;-53
2021/08/20 06:29:38;;;;;;;3.00;1.73;;;;;;;;;;5031659;28;20083;-52
2021/08/20 06:32:04;;;;;;;4.65;2.05;;;;;;;;;;5032730;28;20037;-53
2021/08/20 06:34:32;;;;;;;2.95;1.90;;;;;;;;;;5032354;28;20064;-52
2021/08/20 06:36:58;;;;;;;3.22;1.70;;;;;;;;;;5033006;28;20037;-53
2021/08/20 06:39:24;;;;;;;3.53;2.00;;;;;;;;;;5032682;28;20018;-53
2021/08/20 06:41:50;;;;;;;4.57;1.90;;;;;;;;;;5032438;28;20025;-52
2021/08/20 06:44:16;;;;;;;2.95;1.60;;;;;;;;;;5032588;28;20108;-52
2021/08/20 06:46:42;;;;;;;8.35;1.98;;;;;;;;;;5032729;28;20443;-52
2021/08/20 06:49:08;;;;;;;4.07;1.95;;;;;;;;;;5032069;28;20102;-52
2021/08/20 06:51:34;;;;;;;3.17;1.83;;;;;;;;;;5032537;28;20054;-52
2021/08/20 06:54:02;;;;;;;3.97;1.73;;;;;;;;;;5032734;28;20036;-52
2021/08/20 06:56:28;;;;;;;4.28;2.08;;;;;;;;;;5032875;28;20467;-52
2021/08/20 06:58:57;;;;;;;3.42;2.35;;;;;;;;;;5032532;28;20040;-53
2021/08/20 07:01:24;;;;;;;3.40;2.35;;;;;;;;;;5031712;28;20037;-52
2021/08/20 07:03:50;;;;;;;3.22;2.50;;;;;;;;;;5032437;28;20451;-52
2021/08/20 07:06:26;;;;;;;4.47;2.10;;;;;;;;;;5032838;28;20026;-52
2021/08/20 07:08:53;;;;;;;2.72;1.67;;;;;;;;;;5032549;28;20025;-52
2021/08/20 07:11:20;;;;;;;6.75;1.80;;;;;;;;;;5031707;28;20025;-52
2021/08/20 07:13:46;;;;;;;5.35;2.63;;;;;;;;;;5032715;28;20359;-52
2021/08/20 07:16:12;;;;;;;4.97;2.60;;;;;;;;;;5032485;28;20025;-52
2021/08/20 07:18:38;;;;;;;4.68;1.92;;;;;;;;;;5032504;28;20517;-52
2021/08/20 07:21:04;;;;;;;3.92;2.17;;;;;;;;;;5031941;28;20018;-52
2021/08/20 07:23:31;;;;;;;3.58;2.47;;;;;;;;;;5032530;28;20037;-52
2021/08/20 07:25:59;;;;;;;3.28;1.85;;;;;;;;;;5032186;28;20303;-52
2021/08/20 07:28:26;;;;;;;3.05;2.05;;;;;;;;;;5030371;28;20030;-52
2021/08/20 07:30:52;;;;;;;3.20;2.05;;;;;;;;;;5031601;28;20099;-52
2021/08/20 07:33:18;;;;;;;3.70;2.25;;;;;;;;;;5032375;28;20467;-52
2021/08/20 07:35:44;;;;;;;5.40;2.30;;;;;;;;;;5032409;28;20017;-52
2021/08/20 07:38:10;;;;;;;2.70;1.92;;;;;;;;;;5032793;28;20030;-52
2021/08/20 07:40:36;;;;;;;4.63;2.33;;;;;;;;;;5031304;28;20021;-52
2021/08/20 07:43:02;;;;;;;4.85;2.35;;;;;;;;;;5032592;28;20085;-52
2021/08/20 07:45:29;;;;;;;4.15;2.20;;;;;;;;;;5032424;28;20025;-52
2021/08/20 07:47:55;;;;;;;3.17;1.92;;;;;;;;;;5032449;28;20029;-52
2021/08/20 07:50:21;;;;;;;6.88;2.80;;;;;;;;;;5031383;28;20143;-52
2021/08/20 07:52:47;;;;;;;3.20;2.47;;;;;;;;;;5033887;28;20366;-52
2021/08/20 07:55:13;;;;;;;6.68;2.63;;;;;;;;;;5035917;28;20649;-52
2021/08/20 07:57:50;;;;;;;6.75;2.88;;;;;;;;;;5036067;28;20049;-52
2021/08/20 08:00:19;;;;;;;6.13;2.15;;;;;;;;;;5035407;28;20021;-52
2021/08/20 08:02:45;;;;;;;5.50;2.58;;;;;;;;;;5035363;28;20041;-52
2021/08/20 08:05:11;;;;;;;4.07;2.53;;;;;;;;;;5035699;28;20022;-52
2021/08/20 08:07:37;;;;;;;6.85;2.95;;;;;;;;;;5035474;28;20459;-52
2021/08/20 08:10:04;;;;;;;6.90;3.63;;;;;;;;;;5035010;28;20561;-52
2021/08/20 08:12:29;;;;;;;7.93;3.50;;;;;;;;;;5035186;28;20120;-52
2021/08/20 08:14:55;;;;;;;8.93;4.05;;;;;;;;;;5035532;28;20105;-52
2021/08/20 08:17:21;;;;;;;5.10;3.03;;;;;;;;;;5034103;28;20414;-52
2021/08/20 08:19:47;;;;;;;6.63;3.47;;;;;;;;;;5034759;28;20152;-52
2021/08/20 08:22:13;;;;;;;5.70;3.05;;;;;;;;;;5035044;28;20021;-52
2021/08/20 08:24:39;;;;;;;4.25;2.60;;;;;;;;;;5035070;28;20550;-52
2021/08/20 08:27:06;;;;;;;5.68;3.03;;;;;;;;;;5035128;28;20144;-52
2021/08/20 08:29:32;;;;;;;3.97;2.35;;;;;;;;;;5033593;28;20026;-52
2021/08/20 08:31:57;;;;;;;7.22;3.17;;;;;;;;;;5034439;28;20044;-52
2021/08/20 08:34:23;;;;;;;6.25;3.25;;;;;;;;;;5034899;28;20040;-52
2021/08/20 08:36:49;;;;;;;8.43;3.30;;;;;;;;;;5035073;28;20025;-52
2021/08/20 08:39:15;;;;;;;4.88;2.60;;;;;;;;;;5034426;28;20114;-52
2021/08/20 08:41:41;;;;;;;4.80;2.90;;;;;;;;;;5034761;28;20021;-53
2021/08/20 08:44:07;;;;;;;7.07;3.05;;;;;;;;;;5034930;28;20443;-52
2021/08/20 08:46:37;;;;;;;7.10;2.75;;;;;;;;;;5034899;28;20032;-52
2021/08/20 08:49:06;;;;;;;8.60;2.92;;;;;;;;;;5033786;28;20427;-52
2021/08/20 08:51:33;;;;;;;10.10;3.83;;;;;;;;;;5034424;28;20042;-52
2021/08/20 08:53:59;;;;;;;4.13;2.65;;;;;;;;;;5035153;28;20119;-52
2021/08/20 08:56:25;;;;;;;4.25;2.53;;;;;;;;;;5034881;28;20448;-52
2021/08/20 08:58:51;;;;;;;5.72;2.78;;;;;;;;;;5034565;28;20025;-52
2021/08/20 09:01:33;;;;;;;6.47;2.47;;;;;;;;;;5033837;28;20022;-53
2021/08/20 09:04:24;;;;;;;5.38;2.88;;;;;;;;;;5034394;28;20032;-52
2021/08/20 09:06:52;;;;;;;4.72;2.65;;;;;;;;;;5034367;28;20469;-52
2021/08/20 09:09:20;;;;;;;5.78;3.20;;;;;;;;;;5034155;28;20017;-52
2021/08/20 09:11:52;;;;;;;8.35;3.22;;;;;;;;;;5033674;28;20037;-52
2021/08/20 09:14:18;;;;;;;3.25;2.20;;;;;;;;;;5034788;28;20359;-52
2021/08/20 09:16:45;;;;;;;4.55;2.33;;;;;;;;;;5034373;28;20033;-52
2021/08/20 09:19:15;;;;;;;4.30;2.05;;;;;;;;;;5034316;28;20403;-52
2021/08/20 09:21:41;;;;;;;4.00;2.17;;;;;;;;;;5033560;28;20076;-52
2021/08/20 09:24:26;;;;;;;6.78;3.25;;;;;;;;;;5034233;28;20120;-52
2021/08/20 09:26:52;;;;;;;5.97;2.30;;;;;;;;;;5034277;28;20030;-53
2021/08/20 09:29:19;;;;;;;5.80;2.80;;;;;;;;;;5032054;28;20025;-52
2021/08/20 09:31:50;;;;;;;4.60;2.25;;;;;;;;;;5033605;28;20084;-52
2021/08/20 09:34:16;;;;;;;;;;;;;;;;;;5034352;28;20080;-52
2021/08/20 09:36:42;;;;;;;5.35;2.35;;;;;;;;;;5033650;28;19971;-52
2021/08/20 09:39:08;;;;;;;7.35;2.38;;;;;;;;;;5033927;28;20044;-52
2021/08/20 09:41:36;;;;;;;3.90;2.22;;;;;;;;;;5033649;28;20033;-52
2021/08/20 09:44:06;;;;;;;4.25;2.13;;;;;;;;;;5034068;28;20152;-53
2021/08/20 09:46:45;;;;;;;5.82;2.72;;;;;;;;;;5033893;28;20083;-52
2021/08/20 09:49:14;;;;;;;4.20;2.22;;;;;;;;;;5033664;28;20132;-52
2021/08/20 09:51:44;;;;;;;4.70;1.95;;;;;;;;;;5032997;28;20049;-53
2021/08/20 09:54:10;;;;;;;;;;;;;;;;;;5034585;28;20053;-52
2021/08/20 09:56:36;;;;;;;2.72;1.73;;;;;;;;;;5033598;28;19905;-52
2021/08/20 09:59:06;;;;;;;8.13;2.42;;;;;;;;;;5033451;28;20014;-52
2021/08/20 10:01:34;;;;;;;3.70;2.38;;;;;;;;;;5033139;28;20116;-53
2021/08/20 10:04:01;;;;;;;4.88;2.70;;;;;;;;;;5033470;28;20444;-52
2021/08/20 10:06:30;;;;;;;5.28;2.35;;;;;;;;;;5032990;28;20505;-53
2021/08/20 10:08:58;;;;;;;4.30;2.05;;;;;;;;;;5033306;28;20021;-53
2021/08/20 10:11:26;;;;;;;2.88;1.67;;;;;;;;;;5032453;28;20029;-53
2021/08/20 10:13:52;;;;;;;3.05;1.83;;;;;;;;;;5033457;28;20362;-53
2021/08/20 10:16:18;;;;;;;3.47;2.30;;;;;;;;;;5032063;28;20061;-53
2021/08/20 10:18:44;;;;;;;3.65;2.10;;;;;;;;;;5033033;28;20030;-52
2021/08/20 10:21:10;;;;;;;3.42;2.10;;;;;;;;;;5032401;28;20444;-53
2021/08/20 10:23:36;;;;;;;3.50;2.25;;;;;;;;;;5032731;28;20478;-52
2021/08/20 10:26:04;;;;;;;7.55;2.20;;;;;;;;;;5033032;28;20072;-52
2021/08/20 10:28:32;;;;;;;3.03;1.80;;;;;;;;;;5031047;28;20025;-53
2021/08/20 10:30:58;;;;;;;5.68;1.80;;;;;;;;;;5032285;28;20443;-52
2021/08/20 10:33:37;;;;;;;5.15;2.00;;;;;;;;;;5032755;28;20037;-52
2021/08/20 10:36:03;;;;;;;7.05;2.17;;;;;;;;;;5032979;28;20415;-52
2021/08/20 10:38:29;;;;;;;3.13;1.73;;;;;;;;;;5032872;28;20030;-52
2021/08/20 10:41:12;;;;;;;2.42;1.85;;;;;;;;;;5031859;28;20347;-52
2021/08/20 10:44:07;;;;;;;2.60;1.85;;;;;;;;;;5033136;28;20100;-52
2021/08/20 10:46:36;;;;;;;2.35;1.83;;;;;;;;;;5031384;28;20033;-53
2021/08/20 10:49:12;;;;;;;2.33;1.60;;;;;;;;;;5032062;28;20068;-52
2021/08/20 10:51:57;;;;;;;2.75;1.67;;;;;;;;;;5032136;28;20467;-53
2021/08/20 10:54:33;;;;;;;7.40;2.00;;;;;;;;;;5033185;28;20192;-53
2021/08/20 10:56:59;;;;;;;3.17;1.70;;;;;;;;;;5032542;28;20414;-52
2021/08/20 10:59:37;;;;;;;4.40;2.30;;;;;;;;;;5032560;28;20029;-52
2021/08/20 11:02:24;;;;;;;2.63;1.55;;;;;;;;;;5032500;28;20030;-52
2021/08/20 11:04:57;;;;;;;2.58;1.60;;;;;;;;;;5031143;28;20417;-52
2021/08/20 11:07:35;;;;;;;2.10;1.88;;;;;;;;;;5032544;28;20091;-52
2021/08/20 11:10:21;;;;;;;3.33;1.85;;;;;;;;;;5032052;28;20035;-52
2021/08/20 11:12:47;;;;;;;2.42;1.73;;;;;;;;;;5031908;28;20061;-52
2021/08/20 11:15:19;;;;;;;2.22;1.90;;;;;;;;;;5032710;28;20028;-52
2021/08/20 11:17:48;;;;;;;3.20;1.70;;;;;;;;;;5032088;28;20071;-52
2021/08/20 11:20:18;;;;;;;2.75;1.80;;;;;;;;;;5031860;28;20351;-52
2021/08/20 11:22:44;;;;;;;4.00;2.15;;;;;;;;;;5032009;28;20052;-52
2021/08/20 11:25:12;;;;;;;3.97;2.42;;;;;;;;;;5032434;28;20036;-52
2021/08/20 11:27:39;;;;;;;2.08;1.52;;;;;;;;;;5034169;28;20022;-52
2021/08/20 11:30:06;;;;;;;5.82;2.13;;;;;;;;;;5034147;28;20108;-52
2021/08/20 11:32:32;;;;;;;4.00;1.90;;;;;;;;;;5035465;28;20033;-52
2021/08/20 11:34:58;;;;;;;2.35;1.90;;;;;;;;;;5036347;28;20021;-52
2021/08/20 11:37:24;;;;;;;4.03;1.85;;;;;;;;;;5036057;28;20026;-52
2021/08/20 11:40:07;;;;;;;3.63;1.30;;;;;;;;;;5035115;28;20017;-52
2021/08/20 11:42:33;;;;;;;4.97;2.00;;;;;;;;;;5036076;28;20029;-52
2021/08/20 11:45:17;;;;;;;5.50;1.92;;;;;;;;;;5035829;28;20076;-52
2021/08/20 11:47:43;;;;;;;2.33;1.67;;;;;;;;;;5036091;28;20028;-52
2021/08/20 11:50:09;;;;;;;3.50;1.63;;;;;;;;;;5035874;28;20359;-52
2021/08/20 11:52:44;;;;;;;2.47;1.75;;;;;;;;;;5035466;28;20029;-52
2021/08/20 11:55:15;;;;;;;3.13;1.90;;;;;;;;;;5035771;28;20025;-53
2021/08/20 11:57:41;;;;;;;3.75;1.88;;;;;;;;;;5035831;28;20440;-52
2021/08/20 12:00:07;;;;;;;2.58;1.73;;;;;;;;;;5035430;28;20032;-52
2021/08/20 12:02:33;;;;;;;3.25;1.80;;;;;;;;;;5035526;28;20115;-52
2021/08/20 12:05:15;;;;;;;2.58;1.75;;;;;;;;;;5035720;28;20455;-53
2021/08/20 12:07:41;;;;;;;3.88;2.10;;;;;;;;;;5035433;28;20054;-52
2021/08/20 12:10:08;;;;;;;2.65;1.63;;;;;;;;;;5034810;28;20033;-52
2021/08/20 12:12:37;;;;;;;2.50;1.58;;;;;;;;;;5035359;28;20067;-52
2021/08/20 12:15:03;;;;;;;10.95;1.92;;;;;;;;;;5035722;28;20079;-52
2021/08/20 12:17:31;;;;;;;3.55;1.65;;;;;;;;;;5035425;28;20025;-53
2021/08/20 12:19:58;;;;;;;3.00;1.70;;;;;;;;;;5035216;28;20228;-53
2021/08/20 12:22:34;;;;;;;3.00;1.92;;;;;;;;;;5034672;28;20079;-53
2021/08/20 12:25:00;;;;;;;2.85;1.90;;;;;;;;;;5035051;28;20079;-52
2021/08/20 12:27:27;;;;;;;3.53;2.03;;;;;;;;;;5035492;28;20021;-53
2021/08/20 12:29:59;;;;;;;2.50;1.88;;;;;;;;;;5033407;28;20090;-53
2021/08/20 12:32:29;;;;;;;1.70;1.38;;;;;;;;;;5034382;28;20478;-53
2021/08/20 12:34:58;;;;;;;2.00;1.70;;;;;;;;;;5035277;28;20029;-52
2021/08/20 12:37:24;;;;;;;3.03;1.77;;;;;;;;;;5034774;28;20025;-52
2021/08/20 12:40:01;;;;;;;1.85;1.60;;;;;;;;;;5033545;28;20025;-53
2021/08/20 12:42:27;;;;;;;4.32;1.73;;;;;;;;;;5034854;28;20105;-53
2021/08/20 12:45:11;;;;;;;4.82;2.28;;;;;;;;;;5034634;28;20064;-53
2021/08/20 12:47:37;;;;;;;4.10;1.83;;;;;;;;;;5034973;28;20025;-53
2021/08/20 12:50:06;;;;;;;5.18;2.22;;;;;;;;;;5034169;28;20449;-52
2021/08/20 12:52:33;;;;;;;4.88;2.10;;;;;;;;;;5034588;28;20035;-52
2021/08/20 12:55:19;;;;;;;1.60;1.50;;;;;;;;;;5034626;28;20034;-52
2021/08/20 12:57:48;;;;;;;2.47;1.70;;;;;;;;;;5034656;28;20034;-52
2021/08/20 13:00:15;;;;;;;3.13;2.17;;;;;;;;;;5033993;28;20378;-52
2021/08/20 13:02:41;;;;;;;3.25;2.13;;;;;;;;;;5034257;28;20022;-53
2021/08/20 13:05:07;;;;;;;2.58;1.80;;;;;;;;;;5035014;28;20045;-52
2021/08/20 13:07:33;;;;;;;2.25;1.90;;;;;;;;;;5034461;28;20029;-52
2021/08/20 13:09:59;;;;;;;6.00;2.33;;;;;;;;;;5033824;28;20199;-52
2021/08/20 13:12:26;;;;;;;1.90;1.60;;;;;;;;;;5034205;28;20116;-52
2021/08/20 13:14:52;;;;;;;9.93;1.60;;;;;;;;;;5034212;28;20025;-52
2021/08/20 13:17:18;;;;;;;19.92;2.47;;;;;;;;;;5034685;28;20321;-52
2021/08/20 13:19:44;;;;;;;5.70;2.20;;;;;;;;;;5034140;28;20026;-52
2021/08/20 13:22:10;;;;;;;2.92;1.90;;;;;;;;;;5033438;28;20021;-53
2021/08/20 13:24:36;;;;;;;6.57;1.90;;;;;;;;;;5033892;28;20073;-53
2021/08/20 13:27:02;;;;;;;4.07;2.30;;;;;;;;;;5034366;28;20030;-53
2021/08/20 13:29:28;;;;;;;6.28;1.90;;;;;;;;;;5031876;28;20417;-52
2021/08/20 13:31:54;;;;;;;6.22;1.98;;;;;;;;;;5033777;28;20028;-52
2021/08/20 13:34:20;;;;;;;4.40;1.80;;;;;;;;;;5032224;28;20410;-52
2021/08/20 13:36:46;;;;;;;2.25;1.80;;;;;;;;;;5034100;28;20112;-53
2021/08/20 13:39:12;;;;;;;3.63;1.98;;;;;;;;;;5033669;28;20044;-53
2021/08/20 13:41:38;;;;;;;3.70;2.35;;;;;;;;;;5033405;28;20021;-53
2021/08/20 13:44:05;;;;;;;1.70;1.45;;;;;;;;;;5033718;28;20025;-52
2021/08/20 13:46:31;;;;;;;3.47;2.17;;;;;;;;;;5033687;28;20026;-52
2021/08/20 13:48:57;;;;;;;4.90;1.90;;;;;;;;;;5033354;28;20157;-52
2021/08/20 13:51:23;;;;;;;3.25;1.90;;;;;;;;;;5033145;28;20025;-52
2021/08/20 13:53:49;;;;;;;2.92;1.70;;;;;;;;;;5033342;28;20033;-52
2021/08/20 13:56:15;;;;;;;2.35;1.65;;;;;;;;;;5033587;28;20023;-53
2021/08/20 13:58:41;;;;;;;2.72;1.98;;;;;;;;;;5033663;28;20032;-52
2021/08/20 14:01:08;;;;;;;2.63;1.65;;;;;;;;;;5032827;28;20025;-53
2021/08/20 14:03:34;;;;;;;3.00;1.83;;;;;;;;;;5033139;28;20026;-53
2021/08/20 14:06:00;;;;;;;1.80;1.63;;;;;;;;;;5033083;28;20021;-53
2021/08/20 14:08:26;;;;;;;3.58;1.92;;;;;;;;;;5033612;28;20035;-53
2021/08/20 14:10:52;;;;;;;2.45;1.90;;;;;;;;;;5032695;28;20116;-52
2021/08/20 14:13:18;;;;;;;2.15;1.83;;;;;;;;;;5033515;28;20340;-53
2021/08/20 14:15:44;;;;;;;3.42;1.80;;;;;;;;;;5032874;28;20490;-53
2021/08/20 14:18:10;;;;;;;2.75;1.70;;;;;;;;;;5033010;28;20061;-52
2021/08/20 14:20:37;;;;;;;3.33;1.88;;;;;;;;;;5032616;28;20018;-52
2021/08/20 14:23:03;;;;;;;3.72;2.10;;;;;;;;;;5033584;28;20392;-53
2021/08/20 14:25:30;;;;;;;4.55;1.77;;;;;;;;;;5030801;28;20128;-52
2021/08/20 14:27:56;;;;;;;1.63;1.45;;;;;;;;;;5033294;28;20033;-52
2021/08/20 14:30:22;;;;;;;1.88;1.40;;;;;;;;;;5032954;28;20107;-53
2021/08/20 14:32:48;;;;;;;2.28;1.67;;;;;;;;;;5032593;28;20428;-53
2021/08/20 14:35:15;;;;;;;2.63;1.70;;;;;;;;;;5033075;28;20419;-52
2021/08/20 14:37:41;;;;;;;4.35;2.35;;;;;;;;;;5032875;28;20033;-53
2021/08/20 14:40:07;;;;;;;3.85;2.00;;;;;;;;;;5032760;28;20032;-53
2021/08/20 14:42:33;;;;;;;1.83;1.45;;;;;;;;;;5032624;28;20027;-53
2021/08/20 14:45:00;;;;;;;2.72;2.00;;;;;;;;;;5033228;28;20434;-52